x

Port Wing, Wi (pngw3) Weather Station

3:40pm - Sun 19th Apr 2015 All times are CDT. -5 hours from GMT.

  • Wind
    16mph, 18mph gusts
  • Air Temp 37°f
  • Sea Pressure 1002.7mb
  • Port Wing, Wi
  • Port Wing, Wi

More Historic Weather Station data

Upgrade to MSW Pro to gain access to the past 30 days of data for over 8000 Wavebouys and Weather Stations around the globe.

Join Pro

Comparision Forecast

View Surf forecast
   
Sun 04/19 3:40pm 16 18 mph 1002.7mb 37f
3:30pm 17 20 mph 1003mb 37f
3:20pm 16 20 mph 1003mb 38f
3:10pm 16 20 mph 1003mb 37f
3:00pm 17 20 mph 1003mb 38f
2:40pm 17 20 mph 1003.4mb 38f
2:30pm 16 20 mph 1003.4mb 38f
2:20pm 17 18 mph 1003.7mb 38f
2:10pm 16 17 mph 1003.7mb 38f
2:00pm 15 16 mph 1004.1mb 38f
1:40pm 14 15 mph 1004.4mb 38f
1:30pm 13 14 mph 1004.4mb 38f
1:20pm 14 16 mph 1004.4mb 38f
1:10pm 15 16 mph 1004.7mb 38f
1:00pm 15 16 mph 1004.7mb 38f
12:40pm 14 16 mph 1005.1mb 38f
12:30pm 15 16 mph 1005.4mb 38f
12:20pm 15 16 mph 1005.4mb 38f
12:10pm 15 17 mph 1005.8mb 38f
12:00pm 15 18 mph 1006.1mb 38f
11:40am 18 20 mph 1006.1mb 37f
11:30am 16 20 mph 1006.1mb 38f
11:20am 15 17 mph 1006.8mb 38f
11:10am 15 17 mph 1006.8mb 38f
11:00am 16 18 mph 1006.8mb 38f
10:40am 17 20 mph 1006.4mb 38f
10:30am 16 20 mph 1006.4mb 38f
10:20am 17 18 mph 1006.4mb 38f
10:10am 16 18 mph 1006.8mb 39f
10:00am 16 17 mph 1007.1mb 39f
9:40am 14 16 mph 1007.5mb 39f
9:30am 15 17 mph 1007.5mb 38f
9:20am 13 16 mph 1007.5mb 39f
9:10am 15 17 mph 1008.1mb 38f
9:00am 14 17 mph 1008.1mb 38f
8:40am 15 17 mph 1008.8mb 38f
8:30am 14 16 mph 1008.8mb 38f
8:20am 11 15 mph 1009.1mb 38f
8:10am 13 16 mph 1009.5mb 38f
8:00am 15 16 mph 1009.5mb 38f
7:40am 13 15 mph 1009.8mb 38f
7:30am 13 17 mph 1009.8mb 38f
7:20am 14 16 mph 1009.8mb 38f
7:10am 14 16 mph 1009.8mb 38f
7:00am 14 17 mph 1009.8mb 38f
6:40am 14 18 mph 1010.2mb 38f
6:30am 14 17 mph 1010.2mb 38f
6:20am 15 18 mph 1010.2mb 38f
6:10am 15 18 mph 1010.2mb 38f
6:00am 15 18 mph 1010.5mb 38f
5:40am 15 16 mph 1010.8mb 37f
5:30am 14 17 mph 1011.2mb 37f
5:20am 15 18 mph 1011.2mb 37f
5:10am 15 18 mph 1011.2mb 37f
5:00am 16 18 mph 1011.2mb 37f
4:40am 10 16 mph 1011.9mb 37f
4:30am 14 16 mph 1011.9mb 38f
4:20am 13 15 mph 1012.2mb 37f
4:10am 11 15 mph 1012.9mb 37f
4:00am 13 21 mph 1013.2mb 37f
3:40am 11 17 mph 1013.9mb 37f
3:30am 16 18 mph 1014.2mb 37f
3:20am 15 18 mph 1014.6mb 37f
3:10am 11 14 mph 1014.9mb 37f
3:00am 11 13 mph 1015.2mb 37f
2:40am 15 20 mph 1015.2mb 37f
2:30am 17 21 mph 1015.2mb 37f
2:20am 17 20 mph 1015.2mb 37f
2:10am 15 17 mph 1015.6mb 37f
2:00am 10 14 mph 1016.3mb 38f
1:40am 11 16 mph 1015.9mb 38f
1:30am 15 17 mph 1015.9mb 38f
1:20am 13 17 mph 1015.9mb 38f
1:10am 15 17 mph 1015.6mb 38f
1:00am 14 16 mph 1015.9mb 38f
12:40am 13 15 mph 1015.9mb 38f
12:30am 10 13 mph 1016.3mb 38f
12:20am 10 13 mph 1016.3mb 38f
12:10am 9 13 mph 1016.6mb 38f
12:00am 10 13 mph 1016.3mb 38f
Sat 04/18 11:40pm 10 13 mph 1016.3mb 37f
11:30pm 6 7 mph 1016.3mb 37f
11:20pm 5 29 mph 1016.6mb 37f
11:10pm 2 3 mph 1016.9mb 37f
11:00pm 2 6 mph 1016.9mb 37f
10:40pm 8 9 mph 1016.9mb 37f
10:30pm 8 13 mph 1017.3mb 38f
10:20pm 9 10 mph 1017.3mb 37f
10:10pm 9 11 mph 1017.3mb 37f
10:00pm 11 14 mph 1017.3mb 37f
9:40pm 15 18 mph 1017.6mb 37f
9:30pm 16 20 mph 1017.6mb 37f
9:20pm 15 18 mph 1017.6mb 37f
9:10pm 15 20 mph 1017.9mb 37f
9:00pm 16 20 mph 1017.9mb 37f
8:40pm 16 20 mph 1018.3mb 37f
8:30pm 17 20 mph 1018.3mb 37f
8:20pm 17 21 mph 1018.3mb 37f
8:10pm 18 21 mph 1018.3mb 37f
8:00pm 18 22 mph 1018.6mb 37f
7:40pm 20 24 mph 1018.6mb 38f
7:30pm 20 23 mph 1019mb 38f
7:20pm 21 24 mph 1018.6mb 38f
7:10pm 21 25 mph 1019mb 38f
7:00pm 23 25 mph 1019mb 38f
6:40pm 23 26 mph 1019.3mb 39f
6:30pm 24 28 mph 1019.6mb 39f
6:20pm 24 28 mph 1019.3mb 39f
6:10pm 24 29 mph 1019.6mb 39f
6:00pm 24 30 mph 1019.6mb 39f
5:40pm 26 30 mph 1019.6mb 39f
5:30pm 25 31 mph 1020mb 39f
5:20pm 26 31 mph 1020mb 39f
5:10pm 24 30 mph 1020.3mb 39f
5:00pm 26 31 mph 1020.3mb 39f
4:58pm 26 29 mph 1020mb 39f
4:40pm 28 32 mph 1020.3mb 39f
4:30pm 26 31 mph 1020.3mb 39f
4:20pm 25 30 mph 1020.7mb 39f
4:10pm 26 30 mph 1020.7mb 39f
4:00pm 26 31 mph 1020.7mb 39f
3:55pm 25 29 mph 1020.7mb 39f
3:50pm 28 32 mph 1021mb 39f
3:40pm 25 31 mph 1020.7mb 39f
3:30pm 26 31 mph 1021mb 39f
3:20pm 29 31 mph 1021mb 39f
3:10pm 26 30 mph 1021.3mb 39f
3:00pm 24 30 mph 1021.3mb 39f
2:53pm 24 30 mph 1021.3mb 39f
2:50pm 25 31 mph 1021.3mb 39f
2:40pm 26 30 mph 1021.7mb 39f
2:30pm 25 31 mph 1022mb 39f
2:20pm 26 31 mph 1021.7mb 39f
2:10pm 30 33 mph 1022mb 39f
2:00pm 28 32 mph 1022mb 39f
1:50pm 26 30 mph 1022.4mb 39f
1:40pm 26 31 mph 1022.4mb 39f
1:30pm 29 32 mph 1022mb 39f
1:20pm 26 31 mph 1022.4mb 39f
1:10pm 26 31 mph 1022.7mb 39f
1:00pm 26 30 mph 1022.7mb 39f
12:50pm 26 30 mph 1022.7mb 39f
12:49pm 25 30 mph 1022.7mb 39f
12:40pm 24 29 mph 1023mb 39f
12:30pm 24 28 mph 1023mb 39f
12:20pm 23 28 mph 1023mb 39f
12:10pm 24 28 mph 1023.4mb 39f
12:00pm 24 28 mph 1023mb 39f
11:50am 23 26 mph 1023.4mb 39f
11:40am 23 28 mph 1023.4mb 39f
11:30am 24 28 mph 1023.4mb 39f
11:20am 24 29 mph 1023.4mb 39f
11:10am 24 29 mph 1023.7mb 40f
11:00am 24 29 mph 1023.7mb 40f
10:50am 23 29 mph 1023.4mb 41f
10:47am 22 29 mph 1023.7mb 41f
10:40am 21 26 mph 1023.7mb 41f
10:30am 21 24 mph 1023.7mb 41f
10:20am 18 23 mph 1023.7mb 41f
10:10am 15 20 mph 1024mb 41f
10:00am 14 18 mph 1024mb 44f
9:50am 7 17 mph 1024mb 47f
9:40am 13 18 mph 1024mb 47f
9:30am 11 20 mph 1024mb 47f
9:20am 8 20 mph 1024mb 46f
9:10am 15 21 mph 1024mb 46f
9:00am 15 21 mph 1024mb 46f
8:50am 10 18 mph 1024mb 46f
8:40am 9 21 mph 1024mb 45f
8:30am 14 18 mph 1024mb 44f
8:20am 14 21 mph 1024mb 44f
8:10am 11 18 mph 1024mb 44f
8:00am 11 17 mph 1023.7mb 44f
7:50am 10 15 mph 1024mb 43f
7:40am 11 18 mph 1023.7mb 42f
7:30am 13 16 mph 1023.4mb 42f
7:20am 13 17 mph 1023.4mb 42f
7:10am 9 13 mph 1023.4mb 42f
7:00am 9 13 mph 1023.4mb 41f
6:50am 10 13 mph 1023.4mb 41f
6:40am 6 9 mph 1023.4mb 41f
6:30am 3 13 mph 1023.4mb 41f
6:20am 10 13 mph 1023mb 41f
6:10am 9 14 mph 1023mb 41f
6:00am 11 16 mph 1022.7mb 41f
5:50am 13 16 mph 1022.7mb 42f
5:40am 13 17 mph 1022.7mb 42f
5:30am 15 16 mph 1022.7mb 42f
5:20am 7 11 mph 1023mb 42f
5:10am 7 10 mph 1022.7mb 42f
5:00am 8 11 mph 1022.7mb 42f
4:50am 8 10 mph 1023mb 43f
4:40am 8 15 mph 1022.7mb 43f
4:30am 13 17 mph 1022.7mb 43f
4:20am 14 21 mph 1022.4mb 43f
4:10am 16 22 mph 1022mb 44f
4:00am 17 23 mph 1022mb 44f
3:50am 15 20 mph 1022mb 44f
3:40am 15 22 mph 1022mb 44f
3:30am 9 16 mph 1022mb 44f
3:20am 9 18 mph 1022mb 45f
3:10am 13 20 mph 1021.7mb 45f
3:00am 15 21 mph 1021.7mb 45f
2:50am 18 21 mph 1021.3mb 44f
2:40am 18 25 mph 1021mb 44f
2:30am 21 24 mph 1020.7mb 43f
2:20am 22 28 mph 1020.3mb 44f
2:10am 18 23 mph 1020.7mb 44f
2:00am 18 23 mph 1020.3mb 44f
1:50am 21 23 mph 1020.3mb 45f
1:40am 22 29 mph 1020.3mb 45f
1:30am 24 29 mph 1020mb 47f
1:20am 20 25 mph 1020.3mb 45f
1:10am 17 21 mph 1020mb 45f
1:00am 16 21 mph 1020mb 47f
12:50am 17 23 mph 1019.6mb 47f
12:40am 20 25 mph 1019.6mb 49f
12:30am 21 23 mph 1019.3mb 48f
12:20am 21 24 mph 1019mb 49f
12:10am 17 21 mph 1019mb 48f
12:00am 11 14 mph 1018.6mb 48f
Fri 04/17 11:50pm 13 18 mph 1018.3mb 49f
11:40pm 11 15 mph 1017.9mb 49f
11:30pm 13 16 mph 1017.6mb 52f
11:20pm 6 7 mph 1017.6mb 50f
11:10pm 8 13 mph 1017.6mb 52f
11:00pm 3 7 mph 1017.3mb 51f
10:50pm 2 6 mph 1016.9mb 48f
10:40pm 7 14 mph 1016.9mb 50f
10:30pm 14 17 mph 1016.6mb 52f
10:20pm 7 20 mph 1016.3mb 50f
10:10pm 5 6 mph 1015.6mb 50f
10:00pm 5 8 mph 1015.6mb 52f
9:50pm 7 9 mph 1015.6mb 55f
9:40pm 6 8 mph 1015.2mb 55f
9:30pm 6 8 mph 1015.2mb 53f
9:20pm 6 9 mph 1015.2mb 57f
9:10pm 7 10 mph 1015.2mb 59f
9:00pm 6 10 mph 1015.2mb 62f
8:50pm 7 11 mph 1015.2mb 61f
8:40pm 8 11 mph 1015.2mb 61f
8:30pm 9 11 mph 1014.9mb 61f
8:20pm 9 15 mph 1014.9mb 60f
8:10pm 11 15 mph 1014.9mb 59f
8:00pm 11 14 mph 1014.6mb 59f
7:50pm 10 14 mph 1014.6mb 58f
7:40pm 11 16 mph 1014.6mb 59f
7:30pm 13 16 mph 1014.6mb 63f
7:20pm 11 15 mph 1014.6mb 64f
7:10pm 10 15 mph 1014.6mb 66f
7:00pm 10 14 mph 1014.6mb 68f
6:50pm 10 15 mph 1014.2mb 69f
6:40pm 9 13 mph 1014.2mb 69f
6:30pm 10 15 mph 1014.2mb 70f
6:20pm 10 16 mph 1014.2mb 70f
6:10pm 10 18 mph 1014.2mb 70f
6:00pm 10 15 mph 1014.2mb 70f
5:50pm 11 16 mph 1014.2mb 70f
5:40pm 11 15 mph 1014.2mb 69f
5:30pm 9 20 mph 1014.2mb 69f
5:20pm 11 15 mph 1014.6mb 70f
5:10pm 11 17 mph 1014.6mb 70f
5:00pm 10 16 mph 1014.6mb 69f
4:50pm 13 18 mph 1014.6mb 69f
4:40pm 11 17 mph 1014.6mb 69f
4:30pm 11 16 mph 1014.6mb 69f
4:20pm 11 18 mph 1014.6mb 68f
4:10pm 9 14 mph 1014.9mb 67f
4:00pm 9 13 mph 1014.9mb 67f
3:50pm 8 16 mph 1015.2mb 67f
3:40pm 5 9 mph 1015.2mb 65f
3:30pm 1 3 mph 1015.2mb 65f
3:20pm 2 5 mph 1015.6mb 64f
3:10pm 3 5 mph 1015.9mb 63f
3:00pm 5
mph
1015.9mb 62f
2:50pm 3 5 mph 1016.3mb 61f
2:40pm 3
mph
1016.6mb 61f
2:30pm 2 3 mph 1016.6mb 60f
2:20pm 2 3 mph 1017.3mb 58f
2:10pm 2
mph
1017.3mb 56f
2:00pm 2 3 mph 1017.3mb 53f
1:50pm 2
mph
1017.6mb 52f
1:40pm 2
mph
1017.9mb 50f
1:30pm 2 3 mph 1017.9mb 48f
1:20pm 2 5 mph 1017.9mb 47f
1:10pm 3 5 mph 1018.3mb 46f
1:00pm 3 5 mph 1018.3mb 47f
12:50pm 5 6 mph 1018.3mb 46f
12:40pm 6
mph
1018.6mb 45f
12:30pm 5 6 mph 1018.6mb 45f
12:20pm 3 5 mph 1018.6mb 45f
12:10pm 3 5 mph 1018.6mb 46f
12:00pm  -  5 mph 1019mb 46f
11:50am 5 6 mph 1019mb 44f
11:40am 6 7 mph 1019.3mb 44f
11:30am 7
mph
1019.3mb 43f
11:20am 6
mph
1019.3mb 44f
11:10am 2 3 mph 1019.6mb 42f
11:00am 2 3 mph 1019.6mb 42f
10:50am 2 7 mph 1020mb 42f
10:40am 7 8 mph 1020mb 41f
10:30am 9 10 mph 1020mb 41f
10:20am 9
mph
1020mb 41f
10:10am 8 9 mph 1020mb 42f
10:00am 9 10 mph 1020.3mb 42f
9:50am 8 9 mph 1020.3mb 42f
9:40am 6
mph
1020.3mb 44f
9:30am 5
mph
1020.3mb 43f
9:20am 2 5 mph 1020.7mb 44f
9:10am 3 5 mph 1020.7mb 44f
9:00am 3
mph
1020.7mb 44f
8:50am 2
mph
1020.7mb 44f
8:40am 1 2 mph 1021mb 43f
8:30am  -  2 mph 1020.7mb 46f
8:20am 2 3 mph 1020.7mb 45f
8:10am  -  1 mph 1020.7mb 45f
8:00am  -  3 mph 1020.7mb 43f
7:50am 3
mph
1020.7mb 41f
7:40am 2 3 mph 1020.3mb 40f
7:30am 1 5 mph 1020.3mb 39f
7:20am 3 5 mph 1020.3mb 38f
7:10am  -  5 mph 1020mb 37f
7:00am 3 5 mph 1020mb 36f
6:50am 3 5 mph 1019.6mb 36f
6:40am 5
mph
1019.6mb 36f
6:30am 3 5 mph 1019.3mb 36f
6:20am 3 5 mph 1019.3mb 36f
6:10am 5 6 mph 1019.3mb 36f
6:00am 3
mph
1019.3mb 37f
5:50am 2 3 mph 1019mb 37f
5:40am 3 5 mph 1019mb 37f
5:30am 2 3 mph 1019mb 37f
5:20am 3 5 mph 1019mb 38f
5:10am 3 7 mph 1019mb 37f
5:00am 5 6 mph 1019mb 38f
4:50am 5 7 mph 1018.6mb 38f
4:40am 5 6 mph 1018.6mb 38f
4:30am 3 5 mph 1018.6mb 38f
4:20am 5 7 mph 1018.6mb 39f
4:10am 3 5 mph 1018.6mb 38f
4:00am 3 5 mph 1018.6mb 40f
3:50am 5 6 mph 1018.3mb 39f
3:40am 3 6 mph 1018.3mb 39f
3:30am 3 5 mph 1018.3mb 39f
3:20am 5
mph
1018.3mb 39f
3:10am 3 5 mph 1017.9mb 39f
3:00am 3 5 mph 1017.9mb 39f
2:50am 2 6 mph 1017.9mb 39f
2:40am 5 6 mph 1017.9mb 40f
2:30am 3 5 mph 1017.9mb 40f
2:20am 1 3 mph 1017.9mb 40f
2:10am 3
mph
1017.9mb 41f
2:00am 1 3 mph 1017.9mb 41f
1:50am 2
mph
1017.9mb 42f
1:40am  -  1 mph 1017.9mb 42f
1:30am  -  2 mph 1017.9mb 42f
1:20am 2
mph
1017.6mb 43f
1:10am 1 2 mph 1017.6mb 43f
1:00am  -  1 mph 1017.6mb 44f
12:50am  -  3 mph 1017.3mb 44f
12:40am  -  1 mph 1017.6mb 45f
12:30am 1 2 mph 1017.6mb 45f
12:20am  -  2 mph 1017.3mb 46f
12:10am  -  2 mph 1017.3mb 46f
12:00am  -  3 mph 1017.3mb 46f
Thu 04/16 11:50pm 3 5 mph 1016.9mb 46f
11:40pm 3 5 mph 1016.9mb 45f
11:30pm 1 6 mph 1016.9mb 44f
11:20pm 3 11 mph 1016.9mb 43f
11:10pm 9 20 mph 1016.6mb 42f
11:00pm 2 5 mph 1016.6mb 45f
10:50pm 1 3 mph 1016.3mb 46f
10:40pm 2 3 mph 1016.3mb 47f
10:30pm 3 5 mph 1016.3mb 46f
10:20pm 5
mph
1016.3mb 46f
10:10pm 3 5 mph 1016.3mb 46f
10:00pm 3
mph
1016.3mb 46f
9:50pm 3
mph
1015.9mb 46f
9:40pm 3 5 mph 1015.9mb -
9:30pm 3 5 mph 1015.9mb -
9:20pm 5 6 mph 1015.9mb -
9:10pm 5
mph
1016.3mb -
9:00pm 1 2 mph 1016.3mb -
8:50pm 1 2 mph 1016.3mb -
8:40pm  -  1 mph 1016.3mb -
8:30pm  -  3 mph 1015.9mb -
8:20pm 2 6 mph 1015.9mb -
8:10pm 5 9 mph 1015.9mb -
8:00pm 8 13 mph 1015.9mb -
7:50pm 9 13 mph 1015.6mb 58f
7:40pm 1 3 mph 1015.2mb 61f
7:30pm  -  2 mph 1015.2mb 61f
7:20pm 2 3 mph 1015.2mb 65f
7:10pm 2 5 mph 1015.2mb 67f
7:00pm 3 5 mph 1015.2mb 67f
6:50pm 2 3 mph 1015.2mb 67f
6:40pm 3
mph
1015.2mb 68f
6:30pm 2 3 mph 1015.2mb 68f
6:20pm  -  2 mph 1015.2mb 68f
6:10pm 1 2 mph 1015.2mb 67f
6:00pm 1 2 mph 1015.2mb 68f
5:50pm  -  2 mph 1015.2mb 67f
5:40pm 2
mph
1015.2mb 65f
5:30pm 2
mph
1015.2mb 64f
5:20pm  -  2 mph 1015.2mb 62f
5:10pm  -  2 mph 1015.2mb 63f
5:00pm  -  2 mph 1015.6mb 61f
4:50pm 3 5 mph 1015.6mb 60f
4:40pm  -  1 mph 1015.2mb 63f
4:30pm 1 2 mph 1015.2mb 62f
4:20pm 1 2 mph 1015.6mb 62f
4:10pm 1 2 mph 1015.6mb 62f
4:00pm  -  2 mph 1015.6mb 61f
3:50pm 1 2 mph 1015.6mb 60f
3:40pm 1 2 mph 1015.9mb 58f
3:30pm  -  2 mph 1015.9mb 58f
3:20pm 1 2 mph 1016.3mb 56f
3:10pm  -  2 mph 1016.3mb 56f
3:00pm  -  2 mph 1016.3mb 56f
2:50pm 2 3 mph 1016.3mb 56f
2:40pm 2 3 mph 1016.3mb 56f
2:30pm 3 5 mph 1016.3mb 54f
2:20pm 2 5 mph 1016.3mb 56f
2:10pm 1 3 mph 1016.6mb 54f
2:00pm 3 8 mph 1016.9mb 50f
1:50pm 2 5 mph 1016.9mb 48f
1:40pm 5
mph
1016.9mb 48f
1:30pm 3
mph
1016.9mb 47f
1:20pm 3
mph
1017.3mb 47f
1:10pm 2 6 mph 1017.3mb 47f
1:00pm 6 8 mph 1017.6mb 45f
12:50pm 7 8 mph 1017.6mb 46f
12:40pm 3 5 mph 1017.6mb 48f
12:30pm 3
mph
1017.6mb 48f
12:20pm 1 3 mph 1017.6mb 47f
12:10pm 2 3 mph 1017.6mb 46f
12:00pm  -  3 mph 1017.9mb 44f
11:50am 1 3 mph 1017.9mb 47f
11:40am 2 3 mph 1017.9mb 46f
11:30am 3 7 mph 1018.3mb 47f
11:20am 2 8 mph 1017.9mb 44f
11:10am 9 13 mph 1018.3mb 44f
11:00am 6 8 mph 1017.9mb 43f
10:50am 5 7 mph 1017.9mb 43f
10:40am 5 6 mph 1017.9mb 43f
10:30am 3 5 mph 1017.9mb 45f
10:20am 3 5 mph 1018.3mb 44f
10:10am 1 3 mph 1018.3mb 44f
10:00am 3 5 mph 1018.3mb 44f
9:50am 5 6 mph 1018.6mb 43f
9:40am 3 6 mph 1018.6mb 47f
9:30am 5 6 mph 1018.6mb 47f
9:20am 5 7 mph 1018.6mb 46f
9:10am 7 8 mph 1018.6mb 47f
9:00am 2 5 mph 1019mb 50f
8:50am  -  1 mph 1019mb 49f
8:40am  -  1 mph 1019mb 51f
8:30am  -  2 mph 1019.3mb 47f
8:20am 1 3 mph 1019.3mb 45f
8:10am 2
mph
1019.3mb 44f
8:00am  -  2 mph 1019.3mb 43f
7:50am 2
mph
1019.6mb 41f
7:40am 2 3 mph 1019.3mb 40f
7:30am 2 3 mph 1019.6mb 39f
7:20am 1 2 mph 1019.6mb 38f
7:10am  -  3 mph 1020mb 37f
7:00am 1 3 mph 1020mb 37f
6:50am 2
mph
1020mb 36f
6:40am  -  1 mph 1020mb 37f
6:30am  -  2 mph 1020mb 36f
6:20am  -  2 mph 1020mb 36f
6:10am 1 3 mph 1020mb 35f
6:00am 2 5 mph 1020mb 35f
5:50am 3 5 mph 1020mb 35f
5:40am 3 5 mph 1020mb 35f
5:30am 1 2 mph 1020.3mb 35f
5:20am 1 3 mph 1020.3mb 35f
5:10am  -  1 mph 1020.3mb 36f
5:00am  -  1 mph 1020.3mb 35f
4:50am  -  3 mph 1020.3mb 35f
4:40am 2 5 mph 1020.3mb 34f
4:30am 2 3 mph 1020.3mb 36f
4:20am 1 2 mph 1020.3mb 37f
4:10am 2
mph
1020.3mb 37f
4:00am 2 3 mph 1020.3mb 36f
3:50am 1 2 mph 1020.3mb 36f
3:40am  -  2 mph 1020.3mb 35f
3:30am  -  3 mph 1020.3mb 35f
3:20am 2 5 mph 1020.3mb 35f
3:10am 1 3 mph 1020.7mb 35f
3:00am  -  3 mph 1020.7mb 35f
2:50am  -  3 mph 1020.7mb 35f
2:40am  -  3 mph 1020.7mb 35f
2:30am  -  2 mph 1021mb 35f
2:20am  -  3 mph 1021mb 34f
2:10am 3
mph
1021mb 34f
2:00am 3
mph
1021mb 33f
1:50am 3
mph
1021mb 33f
1:40am 3
mph
1021.3mb 33f
1:30am 2 3 mph 1021mb 34f
1:20am 2 3 mph 1021mb 35f
1:10am 2 3 mph 1021mb 34f
1:00am 2 3 mph 1021mb 34f
12:50am 2 3 mph 1021mb 35f
12:40am 2 3 mph 1021mb 34f
12:30am  -  2 mph 1021mb 37f
12:20am 2 3 mph 1021mb 38f
12:10am 2 3 mph 1021mb 38f
12:00am 2
mph
1020.7mb 38f
Wed 04/15 11:50pm 1 3 mph 1020.7mb 37f
11:40pm 3
mph
1020.7mb 35f
11:30pm  -  2 mph 1020.7mb 35f
11:20pm 3 5 mph 1020.7mb 35f
11:10pm 1 5 mph 1020.7mb 37f
11:00pm 3
mph
1020.7mb 37f
10:50pm  -  2 mph 1020.7mb 36f
10:40pm 1 2 mph 1020.7mb 37f
10:30pm 3 5 mph 1021mb 38f
10:20pm 5
mph
1021mb 38f
10:10pm 2
mph
1020.7mb 39f
10:00pm  -  2 mph 1020.7mb 37f
9:50pm 1 2 mph 1020.7mb 37f
9:40pm 1 2 mph 1020.7mb 38f